This is the latest recevied weather packets stored in our database for station/object DB8NZ-11. If no packets are shown the sender has not sent any weather packets the latest 1 day(s).
| Time | Temp. | Humidity | Pressure | Rain* | Wind** | Luminosity | Snow |
|---|---|---|---|---|---|---|---|
| 1778044593 | 13.33° C | 94% | 1011.8 hPa | - | - | - | - |
| 1778043693 | 12.22° C | 96% | 1011.7 hPa | - | - | - | - |
| 1778042793 | 12.22° C | 94% | 1011.7 hPa | - | - | - | - |
| 1778041893 | 12.22° C | 95% | 1011.7 hPa | - | - | - | - |
| 1778040993 | 11.67° C | 95% | 1011.6 hPa | - | - | - | - |
| 1778040093 | 11.67° C | 94% | 1011.6 hPa | - | - | - | - |
| 1778039193 | 11.67° C | 95% | 1011.5 hPa | - | - | - | - |
| 1778038293 | 11.67° C | 96% | 1011.6 hPa | - | - | - | - |
| 1778037393 | 11.67° C | 95% | 1011.7 hPa | - | - | - | - |
| 1778036492 | 11.67° C | 96% | 1011.7 hPa | - | - | - | - |
| 1778036389 | 11.67° C | 96% | 1011.7 hPa | - | - | - | - |
| 1778035489 | 12.22° C | 96% | 1011.6 hPa | - | - | - | - |
| 1778034589 | 12.22° C | 97% | 1011.7 hPa | - | - | - | - |
| 1778033689 | 12.78° C | 98% | 1011.5 hPa | - | - | - | - |
| 1778032789 | 12.78° C | 100% | 1011.3 hPa | - | - | - | - |
| 1778031888 | 13.33° C | 97% | 1011.4 hPa | - | - | - | - |
| 1778030988 | 13.33° C | 98% | 1011.6 hPa | - | - | - | - |
| 1778030088 | 13.89° C | 95% | 1011.9 hPa | - | - | - | - |
| 1778028288 | 13.89° C | 94% | 1012 hPa | - | - | - | - |
| 1778027388 | 14.44° C | 92% | 1012.1 hPa | - | - | - | - |
| 1778026488 | 14.44° C | 92% | 1012.2 hPa | - | - | - | - |
| 1778024688 | 14.44° C | 95% | 1012.3 hPa | - | - | - | - |
| 1778023788 | 14.44° C | 93% | 1012.3 hPa | - | - | - | - |
| 1778022888 | 14.44° C | 94% | 1012.3 hPa | - | - | - | - |
| 1778014787 | 15° C | 89% | 1012.6 hPa | - | - | - | - |
* Rain since midnight (hover to see other rain measurements)
** Current wind speed in m/s (hover to see current wind gust speed)